sensor_id;sensor_type;location;lat;lon;timestamp;P1;durP1;ratioP1;P2;durP2;ratioP2
12433;SDS011;6281;49.038;8.372;2023-06-14T00:02:26;5.83;;;4.40;;
12433;SDS011;6281;49.038;8.372;2023-06-14T00:04:53;4.77;;;3.80;;
12433;SDS011;6281;49.038;8.372;2023-06-14T00:07:22;10.00;;;4.20;;
12433;SDS011;6281;49.038;8.372;2023-06-14T00:10:00;4.13;;;3.60;;
12433;SDS011;6281;49.038;8.372;2023-06-14T00:12:27;5.37;;;3.90;;
12433;SDS011;6281;49.038;8.372;2023-06-14T00:14:54;4.97;;;4.00;;
12433;SDS011;6281;49.038;8.372;2023-06-14T00:17:21;4.70;;;3.90;;
12433;SDS011;6281;49.038;8.372;2023-06-14T00:19:50;4.23;;;3.83;;
12433;SDS011;6281;49.038;8.372;2023-06-14T00:22:17;6.63;;;4.63;;
12433;SDS011;6281;49.038;8.372;2023-06-14T00:24:45;4.13;;;3.60;;
12433;SDS011;6281;49.038;8.372;2023-06-14T00:27:12;5.30;;;3.80;;
12433;SDS011;6281;49.038;8.372;2023-06-14T00:29:49;6.73;;;3.60;;
12433;SDS011;6281;49.038;8.372;2023-06-14T00:32:15;4.47;;;3.90;;
12433;SDS011;6281;49.038;8.372;2023-06-14T00:34:42;4.63;;;3.63;;
12433;SDS011;6281;49.038;8.372;2023-06-14T00:37:11;4.03;;;3.63;;
12433;SDS011;6281;49.038;8.372;2023-06-14T00:39:37;5.30;;;3.97;;
12433;SDS011;6281;49.038;8.372;2023-06-14T00:42:05;5.83;;;3.73;;
12433;SDS011;6281;49.038;8.372;2023-06-14T00:44:32;7.30;;;4.00;;
12433;SDS011;6281;49.038;8.372;2023-06-14T00:46:59;4.33;;;3.93;;
12433;SDS011;6281;49.038;8.372;2023-06-14T00:49:26;4.13;;;3.77;;
12433;SDS011;6281;49.038;8.372;2023-06-14T00:51:55;4.57;;;3.50;;
12433;SDS011;6281;49.038;8.372;2023-06-14T00:54:23;5.17;;;3.87;;
12433;SDS011;6281;49.038;8.372;2023-06-14T00:56:50;4.27;;;3.80;;
12433;SDS011;6281;49.038;8.372;2023-06-14T00:59:17;5.27;;;4.00;;
12433;SDS011;6281;49.038;8.372;2023-06-14T01:01:44;6.07;;;3.80;;
12433;SDS011;6281;49.038;8.372;2023-06-14T01:04:11;4.40;;;3.80;;
12433;SDS011;6281;49.038;8.372;2023-06-14T01:06:40;3.93;;;3.53;;
12433;SDS011;6281;49.038;8.372;2023-06-14T01:09:31;6.70;;;3.90;;
12433;SDS011;6281;49.038;8.372;2023-06-14T01:12:04;3.97;;;3.57;;
12433;SDS011;6281;49.038;8.372;2023-06-14T01:14:37;5.57;;;3.47;;
12433;SDS011;6281;49.038;8.372;2023-06-14T01:17:04;3.90;;;3.50;;
12433;SDS011;6281;49.038;8.372;2023-06-14T01:19:40;6.73;;;3.80;;
12433;SDS011;6281;49.038;8.372;2023-06-14T01:22:07;4.23;;;3.30;;
12433;SDS011;6281;49.038;8.372;2023-06-14T01:24:36;4.50;;;3.63;;
12433;SDS011;6281;49.038;8.372;2023-06-14T01:32:53;6.00;;;3.70;;
12433;SDS011;6281;49.038;8.372;2023-06-14T01:35:21;6.17;;;3.60;;
12433;SDS011;6281;49.038;8.372;2023-06-14T01:37:49;4.00;;;3.07;;
12433;SDS011;6281;49.038;8.372;2023-06-14T01:40:31;4.70;;;3.57;;
12433;SDS011;6281;49.038;8.372;2023-06-14T01:43:00;4.30;;;3.30;;
12433;SDS011;6281;49.038;8.372;2023-06-14T01:45:29;5.00;;;3.77;;
12433;SDS011;6281;49.038;8.372;2023-06-14T01:47:57;4.67;;;3.73;;
12433;SDS011;6281;49.038;8.372;2023-06-14T01:50:27;5.17;;;3.73;;
12433;SDS011;6281;49.038;8.372;2023-06-14T01:52:54;4.90;;;3.40;;
12433;SDS011;6281;49.038;8.372;2023-06-14T01:55:21;6.40;;;3.53;;
12433;SDS011;6281;49.038;8.372;2023-06-14T01:57:51;7.07;;;3.73;;
12433;SDS011;6281;49.038;8.372;2023-06-14T02:00:18;4.00;;;3.20;;
12433;SDS011;6281;49.038;8.372;2023-06-14T02:02:45;5.23;;;3.57;;
12433;SDS011;6281;49.038;8.372;2023-06-14T02:05:12;4.43;;;3.43;;
12433;SDS011;6281;49.038;8.372;2023-06-14T02:07:38;4.30;;;3.47;;
12433;SDS011;6281;49.038;8.372;2023-06-14T02:10:05;4.70;;;3.03;;
12433;SDS011;6281;49.038;8.372;2023-06-14T02:12:33;4.23;;;3.33;;
12433;SDS011;6281;49.038;8.372;2023-06-14T02:15:01;3.60;;;3.27;;
12433;SDS011;6281;49.038;8.372;2023-06-14T02:17:28;5.20;;;3.60;;
12433;SDS011;6281;49.038;8.372;2023-06-14T02:19:55;3.83;;;3.37;;
12433;SDS011;6281;49.038;8.372;2023-06-14T02:22:23;5.10;;;3.63;;
12433;SDS011;6281;49.038;8.372;2023-06-14T02:24:50;4.43;;;3.47;;
12433;SDS011;6281;49.038;8.372;2023-06-14T02:27:17;6.37;;;3.90;;
12433;SDS011;6281;49.038;8.372;2023-06-14T02:29:44;5.77;;;3.63;;
12433;SDS011;6281;49.038;8.372;2023-06-14T02:32:12;8.47;;;3.50;;
12433;SDS011;6281;49.038;8.372;2023-06-14T02:34:39;4.07;;;3.40;;
12433;SDS011;6281;49.038;8.372;2023-06-14T02:37:06;4.93;;;3.53;;
12433;SDS011;6281;49.038;8.372;2023-06-14T02:39:33;5.50;;;3.67;;
12433;SDS011;6281;49.038;8.372;2023-06-14T02:42:01;4.67;;;3.67;;
12433;SDS011;6281;49.038;8.372;2023-06-14T02:44:28;5.30;;;3.87;;
12433;SDS011;6281;49.038;8.372;2023-06-14T02:46:55;6.37;;;3.47;;
12433;SDS011;6281;49.038;8.372;2023-06-14T02:49:25;3.93;;;3.53;;
12433;SDS011;6281;49.038;8.372;2023-06-14T02:51:52;4.33;;;3.63;;
12433;SDS011;6281;49.038;8.372;2023-06-14T02:54:19;4.83;;;3.67;;
12433;SDS011;6281;49.038;8.372;2023-06-14T02:56:46;4.20;;;3.80;;
12433;SDS011;6281;49.038;8.372;2023-06-14T02:59:12;3.77;;;3.37;;
12433;SDS011;6281;49.038;8.372;2023-06-14T03:01:40;4.43;;;3.87;;
12433;SDS011;6281;49.038;8.372;2023-06-14T03:04:07;7.13;;;3.80;;
12433;SDS011;6281;49.038;8.372;2023-06-14T03:06:36;4.90;;;3.47;;
12433;SDS011;6281;49.038;8.372;2023-06-14T03:09:04;8.03;;;3.60;;
12433;SDS011;6281;49.038;8.372;2023-06-14T03:11:32;6.13;;;3.60;;
12433;SDS011;6281;49.038;8.372;2023-06-14T03:13:59;4.17;;;3.30;;
12433;SDS011;6281;49.038;8.372;2023-06-14T03:16:28;4.07;;;3.60;;
12433;SDS011;6281;49.038;8.372;2023-06-14T03:18:56;4.57;;;3.73;;
12433;SDS011;6281;49.038;8.372;2023-06-14T03:21:23;4.10;;;3.40;;
12433;SDS011;6281;49.038;8.372;2023-06-14T03:23:52;4.33;;;3.47;;
12433;SDS011;6281;49.038;8.372;2023-06-14T03:26:19;4.90;;;4.03;;
12433;SDS011;6281;49.038;8.372;2023-06-14T03:28:46;4.33;;;3.93;;
12433;SDS011;6281;49.038;8.372;2023-06-14T03:31:13;3.90;;;3.50;;
12433;SDS011;6281;49.038;8.372;2023-06-14T03:33:41;4.60;;;3.73;;
12433;SDS011;6281;49.038;8.372;2023-06-14T03:36:08;5.90;;;3.50;;
12433;SDS011;6281;49.038;8.372;2023-06-14T03:38:35;5.30;;;4.00;;
12433;SDS011;6281;49.038;8.372;2023-06-14T03:41:03;6.90;;;4.23;;
12433;SDS011;6281;49.038;8.372;2023-06-14T03:43:30;5.10;;;3.90;;
12433;SDS011;6281;49.038;8.372;2023-06-14T03:45:56;5.40;;;3.80;;
12433;SDS011;6281;49.038;8.372;2023-06-14T03:48:23;6.67;;;3.73;;
12433;SDS011;6281;49.038;8.372;2023-06-14T03:50:50;5.30;;;4.17;;
12433;SDS011;6281;49.038;8.372;2023-06-14T03:53:17;4.23;;;3.83;;
12433;SDS011;6281;49.038;8.372;2023-06-14T03:55:45;4.70;;;3.93;;
12433;SDS011;6281;49.038;8.372;2023-06-14T03:58:14;4.60;;;4.00;;
12433;SDS011;6281;49.038;8.372;2023-06-14T04:00:42;6.63;;;4.00;;
12433;SDS011;6281;49.038;8.372;2023-06-14T04:03:10;4.77;;;4.10;;
12433;SDS011;6281;49.038;8.372;2023-06-14T04:05:38;4.50;;;3.87;;
12433;SDS011;6281;49.038;8.372;2023-06-14T04:08:07;5.30;;;3.87;;
12433;SDS011;6281;49.038;8.372;2023-06-14T04:10:34;4.37;;;3.97;;
12433;SDS011;6281;49.038;8.372;2023-06-14T04:13:01;7.97;;;4.03;;
12433;SDS011;6281;49.038;8.372;2023-06-14T04:15:29;5.13;;;4.00;;
12433;SDS011;6281;49.038;8.372;2023-06-14T04:17:56;4.30;;;3.70;;
12433;SDS011;6281;49.038;8.372;2023-06-14T04:20:23;4.33;;;3.90;;
12433;SDS011;6281;49.038;8.372;2023-06-14T04:22:50;4.87;;;4.37;;
12433;SDS011;6281;49.038;8.372;2023-06-14T04:25:17;4.93;;;4.20;;
12433;SDS011;6281;49.038;8.372;2023-06-14T04:27:44;6.97;;;4.10;;
12433;SDS011;6281;49.038;8.372;2023-06-14T04:30:12;7.57;;;4.53;;
12433;SDS011;6281;49.038;8.372;2023-06-14T04:32:40;4.23;;;3.83;;
12433;SDS011;6281;49.038;8.372;2023-06-14T04:35:07;5.57;;;4.30;;
12433;SDS011;6281;49.038;8.372;2023-06-14T04:37:35;5.60;;;4.63;;
12433;SDS011;6281;49.038;8.372;2023-06-14T04:40:05;5.00;;;4.23;;
12433;SDS011;6281;49.038;8.372;2023-06-14T04:42:33;9.33;;;4.50;;
12433;SDS011;6281;49.038;8.372;2023-06-14T04:45:02;9.80;;;4.30;;
12433;SDS011;6281;49.038;8.372;2023-06-14T04:47:29;7.40;;;4.73;;
12433;SDS011;6281;49.038;8.372;2023-06-14T04:49:58;7.10;;;4.43;;
12433;SDS011;6281;49.038;8.372;2023-06-14T04:52:35;7.67;;;5.13;;
12433;SDS011;6281;49.038;8.372;2023-06-14T04:55:02;10.27;;;4.70;;
12433;SDS011;6281;49.038;8.372;2023-06-14T04:57:30;6.00;;;5.20;;
12433;SDS011;6281;49.038;8.372;2023-06-14T04:59:57;7.10;;;5.03;;
12433;SDS011;6281;49.038;8.372;2023-06-14T05:02:26;9.83;;;4.83;;
12433;SDS011;6281;49.038;8.372;2023-06-14T05:04:55;5.30;;;4.70;;
12433;SDS011;6281;49.038;8.372;2023-06-14T05:07:24;6.37;;;4.73;;
12433;SDS011;6281;49.038;8.372;2023-06-14T05:09:50;6.23;;;4.67;;
12433;SDS011;6281;49.038;8.372;2023-06-14T05:12:17;8.87;;;4.87;;
12433;SDS011;6281;49.038;8.372;2023-06-14T05:14:44;6.57;;;4.37;;
12433;SDS011;6281;49.038;8.372;2023-06-14T05:17:11;7.13;;;4.27;;
12433;SDS011;6281;49.038;8.372;2023-06-14T05:19:38;8.13;;;4.47;;
12433;SDS011;6281;49.038;8.372;2023-06-14T05:22:05;6.17;;;4.77;;
12433;SDS011;6281;49.038;8.372;2023-06-14T05:24:33;5.07;;;4.57;;
12433;SDS011;6281;49.038;8.372;2023-06-14T05:27:00;7.57;;;4.60;;
12433;SDS011;6281;49.038;8.372;2023-06-14T05:29:27;4.43;;;4.03;;
12433;SDS011;6281;49.038;8.372;2023-06-14T05:31:53;9.60;;;4.70;;
12433;SDS011;6281;49.038;8.372;2023-06-14T05:34:20;5.17;;;4.53;;
12433;SDS011;6281;49.038;8.372;2023-06-14T05:36:47;5.60;;;4.47;;
12433;SDS011;6281;49.038;8.372;2023-06-14T05:39:14;5.07;;;4.53;;
12433;SDS011;6281;49.038;8.372;2023-06-14T05:41:42;7.70;;;4.70;;
12433;SDS011;6281;49.038;8.372;2023-06-14T05:44:09;8.17;;;4.50;;
12433;SDS011;6281;49.038;8.372;2023-06-14T05:46:36;5.60;;;4.70;;
12433;SDS011;6281;49.038;8.372;2023-06-14T05:49:05;5.83;;;4.63;;
12433;SDS011;6281;49.038;8.372;2023-06-14T05:54:27;7.80;;;4.40;;
12433;SDS011;6281;49.038;8.372;2023-06-14T05:56:55;6.60;;;4.43;;
12433;SDS011;6281;49.038;8.372;2023-06-14T05:59:26;7.73;;;4.27;;
12433;SDS011;6281;49.038;8.372;2023-06-14T06:01:53;4.37;;;3.97;;
12433;SDS011;6281;49.038;8.372;2023-06-14T06:04:19;8.80;;;4.60;;
12433;SDS011;6281;49.038;8.372;2023-06-14T06:06:46;5.77;;;4.60;;
12433;SDS011;6281;49.038;8.372;2023-06-14T06:09:13;5.60;;;4.23;;
12433;SDS011;6281;49.038;8.372;2023-06-14T06:11:40;4.83;;;4.30;;
12433;SDS011;6281;49.038;8.372;2023-06-14T06:14:08;8.20;;;4.67;;
12433;SDS011;6281;49.038;8.372;2023-06-14T06:16:35;5.30;;;4.20;;
12433;SDS011;6281;49.038;8.372;2023-06-14T06:19:02;4.63;;;4.20;;
12433;SDS011;6281;49.038;8.372;2023-06-14T06:21:28;5.90;;;3.70;;
12433;SDS011;6281;49.038;8.372;2023-06-14T06:23:56;5.30;;;4.40;;
12433;SDS011;6281;49.038;8.372;2023-06-14T06:26:23;5.37;;;3.97;;
12433;SDS011;6281;49.038;8.372;2023-06-14T06:28:51;4.40;;;4.00;;
12433;SDS011;6281;49.038;8.372;2023-06-14T06:31:19;5.53;;;4.23;;
12433;SDS011;6281;49.038;8.372;2023-06-14T06:33:47;4.60;;;3.77;;
12433;SDS011;6281;49.038;8.372;2023-06-14T06:36:14;4.70;;;3.93;;
12433;SDS011;6281;49.038;8.372;2023-06-14T06:38:41;4.97;;;3.87;;
12433;SDS011;6281;49.038;8.372;2023-06-14T06:41:07;9.00;;;3.70;;
12433;SDS011;6281;49.038;8.372;2023-06-14T06:43:34;5.27;;;3.93;;
12433;SDS011;6281;49.038;8.372;2023-06-14T06:46:01;7.00;;;3.80;;
12433;SDS011;6281;49.038;8.372;2023-06-14T06:48:29;3.97;;;3.53;;
12433;SDS011;6281;49.038;8.372;2023-06-14T06:50:56;4.80;;;3.90;;
12433;SDS011;6281;49.038;8.372;2023-06-14T06:53:23;5.00;;;3.87;;
12433;SDS011;6281;49.038;8.372;2023-06-14T06:55:49;5.23;;;4.50;;
12433;SDS011;6281;49.038;8.372;2023-06-14T06:58:16;5.93;;;3.70;;
12433;SDS011;6281;49.038;8.372;2023-06-14T07:00:43;6.03;;;4.40;;
12433;SDS011;6281;49.038;8.372;2023-06-14T07:03:10;4.87;;;3.70;;
12433;SDS011;6281;49.038;8.372;2023-06-14T07:05:39;6.57;;;4.17;;
12433;SDS011;6281;49.038;8.372;2023-06-14T07:08:05;5.77;;;3.80;;
12433;SDS011;6281;49.038;8.372;2023-06-14T07:10:32;6.07;;;4.40;;
12433;SDS011;6281;49.038;8.372;2023-06-14T07:13:00;7.97;;;5.50;;
12433;SDS011;6281;49.038;8.372;2023-06-14T07:15:27;6.00;;;4.90;;
12433;SDS011;6281;49.038;8.372;2023-06-14T07:17:54;5.30;;;4.73;;
12433;SDS011;6281;49.038;8.372;2023-06-14T07:20:24;5.67;;;4.87;;
12433;SDS011;6281;49.038;8.372;2023-06-14T07:22:53;5.57;;;4.57;;
12433;SDS011;6281;49.038;8.372;2023-06-14T07:25:19;7.80;;;5.57;;
12433;SDS011;6281;49.038;8.372;2023-06-14T07:27:47;5.53;;;4.70;;
12433;SDS011;6281;49.038;8.372;2023-06-14T07:30:14;5.37;;;3.60;;
12433;SDS011;6281;49.038;8.372;2023-06-14T07:32:41;4.20;;;3.80;;
12433;SDS011;6281;49.038;8.372;2023-06-14T07:35:08;5.50;;;3.63;;
12433;SDS011;6281;49.038;8.372;2023-06-14T07:37:35;4.17;;;3.70;;
12433;SDS011;6281;49.038;8.372;2023-06-14T07:40:04;4.63;;;3.53;;
12433;SDS011;6281;49.038;8.372;2023-06-14T07:42:32;4.80;;;4.03;;
12433;SDS011;6281;49.038;8.372;2023-06-14T07:44:59;3.93;;;3.53;;
12433;SDS011;6281;49.038;8.372;2023-06-14T07:47:26;4.37;;;3.97;;
12433;SDS011;6281;49.038;8.372;2023-06-14T07:49:53;4.00;;;3.60;;
12433;SDS011;6281;49.038;8.372;2023-06-14T07:52:28;4.97;;;3.60;;
12433;SDS011;6281;49.038;8.372;2023-06-14T07:54:55;5.53;;;3.37;;
12433;SDS011;6281;49.038;8.372;2023-06-14T07:57:24;4.27;;;3.33;;
12433;SDS011;6281;49.038;8.372;2023-06-14T07:59:51;6.57;;;3.80;;
12433;SDS011;6281;49.038;8.372;2023-06-14T08:02:18;4.67;;;3.73;;
12433;SDS011;6281;49.038;8.372;2023-06-14T08:04:45;4.00;;;3.60;;
12433;SDS011;6281;49.038;8.372;2023-06-14T08:07:13;3.80;;;3.40;;
12433;SDS011;6281;49.038;8.372;2023-06-14T08:09:40;8.20;;;3.77;;
12433;SDS011;6281;49.038;8.372;2023-06-14T08:12:07;5.40;;;3.77;;
12433;SDS011;6281;49.038;8.372;2023-06-14T08:14:37;7.03;;;3.67;;
12433;SDS011;6281;49.038;8.372;2023-06-14T08:17:05;4.70;;;3.70;;
12433;SDS011;6281;49.038;8.372;2023-06-14T08:19:32;3.87;;;3.50;;
12433;SDS011;6281;49.038;8.372;2023-06-14T08:21:59;4.80;;;3.50;;
12433;SDS011;6281;49.038;8.372;2023-06-14T08:24:26;4.63;;;3.50;;
12433;SDS011;6281;49.038;8.372;2023-06-14T08:26:53;4.43;;;3.83;;
12433;SDS011;6281;49.038;8.372;2023-06-14T08:29:21;4.90;;;3.53;;
12433;SDS011;6281;49.038;8.372;2023-06-14T08:31:49;4.07;;;3.60;;
12433;SDS011;6281;49.038;8.372;2023-06-14T08:34:16;3.40;;;3.07;;
12433;SDS011;6281;49.038;8.372;2023-06-14T08:36:43;5.73;;;3.60;;
12433;SDS011;6281;49.038;8.372;2023-06-14T08:39:10;3.70;;;3.30;;
12433;SDS011;6281;49.038;8.372;2023-06-14T08:41:37;5.00;;;3.63;;
12433;SDS011;6281;49.038;8.372;2023-06-14T08:44:04;4.40;;;3.20;;
12433;SDS011;6281;49.038;8.372;2023-06-14T08:46:32;4.07;;;3.43;;
12433;SDS011;6281;49.038;8.372;2023-06-14T08:49:01;6.30;;;3.30;;
12433;SDS011;6281;49.038;8.372;2023-06-14T08:51:30;3.83;;;3.30;;
12433;SDS011;6281;49.038;8.372;2023-06-14T08:53:59;3.97;;;3.47;;
12433;SDS011;6281;49.038;8.372;2023-06-14T08:56:27;4.00;;;3.60;;
12433;SDS011;6281;49.038;8.372;2023-06-14T08:58:55;5.97;;;3.67;;
12433;SDS011;6281;49.038;8.372;2023-06-14T09:01:23;5.43;;;3.73;;
12433;SDS011;6281;49.038;8.372;2023-06-14T09:03:50;4.37;;;3.57;;
12433;SDS011;6281;49.038;8.372;2023-06-14T09:06:21;4.70;;;3.50;;
12433;SDS011;6281;49.038;8.372;2023-06-14T09:08:48;4.70;;;3.63;;
12433;SDS011;6281;49.038;8.372;2023-06-14T09:11:15;4.00;;;3.33;;
12433;SDS011;6281;49.038;8.372;2023-06-14T09:13:44;6.57;;;3.67;;
12433;SDS011;6281;49.038;8.372;2023-06-14T09:16:11;4.77;;;3.87;;
12433;SDS011;6281;49.038;8.372;2023-06-14T09:18:39;4.57;;;3.90;;
12433;SDS011;6281;49.038;8.372;2023-06-14T09:21:09;5.17;;;3.33;;
12433;SDS011;6281;49.038;8.372;2023-06-14T09:23:39;4.07;;;3.60;;
12433;SDS011;6281;49.038;8.372;2023-06-14T09:26:08;5.10;;;3.67;;
12433;SDS011;6281;49.038;8.372;2023-06-14T09:28:36;5.67;;;3.20;;
12433;SDS011;6281;49.038;8.372;2023-06-14T09:31:07;4.73;;;3.33;;
12433;SDS011;6281;49.038;8.372;2023-06-14T09:33:34;4.67;;;3.80;;
12433;SDS011;6281;49.038;8.372;2023-06-14T09:36:02;4.60;;;3.70;;
12433;SDS011;6281;49.038;8.372;2023-06-14T09:38:29;4.53;;;3.37;;
12433;SDS011;6281;49.038;8.372;2023-06-14T09:40:58;5.00;;;3.40;;
12433;SDS011;6281;49.038;8.372;2023-06-14T09:43:25;3.90;;;3.50;;
12433;SDS011;6281;49.038;8.372;2023-06-14T09:45:53;4.07;;;3.20;;
12433;SDS011;6281;49.038;8.372;2023-06-14T09:48:20;4.00;;;3.60;;
12433;SDS011;6281;49.038;8.372;2023-06-14T09:50:53;6.00;;;3.60;;
12433;SDS011;6281;49.038;8.372;2023-06-14T09:53:23;4.80;;;3.22;;
12433;SDS011;6281;49.038;8.372;2023-06-14T09:55:51;3.80;;;3.30;;
12433;SDS011;6281;49.038;8.372;2023-06-14T09:58:23;4.93;;;3.20;;
12433;SDS011;6281;49.038;8.372;2023-06-14T10:00:52;3.17;;;2.88;;
12433;SDS011;6281;49.038;8.372;2023-06-14T10:03:24;3.33;;;3.03;;
12433;SDS011;6281;49.038;8.372;2023-06-14T10:05:54;3.75;;;3.30;;
12433;SDS011;6281;49.038;8.372;2023-06-14T10:08:26;3.70;;;3.03;;
12433;SDS011;6281;49.038;8.372;2023-06-14T10:10:58;4.13;;;3.10;;
12433;SDS011;6281;49.038;8.372;2023-06-14T10:13:27;3.80;;;3.40;;
12433;SDS011;6281;49.038;8.372;2023-06-14T10:15:58;4.15;;;3.20;;
12433;SDS011;6281;49.038;8.372;2023-06-14T10:18:33;3.78;;;2.95;;
12433;SDS011;6281;49.038;8.372;2023-06-14T10:21:08;4.07;;;2.90;;
12433;SDS011;6281;49.038;8.372;2023-06-14T10:23:43;4.22;;;3.40;;
12433;SDS011;6281;49.038;8.372;2023-06-14T10:26:17;4.68;;;3.05;;
12433;SDS011;6281;49.038;8.372;2023-06-14T10:28:56;3.40;;;3.10;;
12433;SDS011;6281;49.038;8.372;2023-06-14T10:31:39;5.53;;;3.03;;
12433;SDS011;6281;49.038;8.372;2023-06-14T10:34:07;6.10;;;3.05;;
12433;SDS011;6281;49.038;8.372;2023-06-14T10:36:34;4.20;;;2.83;;
12433;SDS011;6281;49.038;8.372;2023-06-14T10:39:04;4.38;;;2.90;;
12433;SDS011;6281;49.038;8.372;2023-06-14T10:41:34;5.18;;;2.97;;
12433;SDS011;6281;49.038;8.372;2023-06-14T10:47:00;5.80;;;3.70;;
12433;SDS011;6281;49.038;8.372;2023-06-14T10:49:37;4.20;;;3.42;;
12433;SDS011;6281;49.038;8.372;2023-06-14T10:52:09;4.32;;;3.70;;
12433;SDS011;6281;49.038;8.372;2023-06-14T10:57:41;5.15;;;3.85;;
12433;SDS011;6281;49.038;8.372;2023-06-14T11:00:13;4.38;;;3.55;;
12433;SDS011;6281;49.038;8.372;2023-06-14T11:05:49;6.47;;;3.80;;
12433;SDS011;6281;49.038;8.372;2023-06-14T11:08:26;5.00;;;4.00;;
12433;SDS011;6281;49.038;8.372;2023-06-14T11:11:09;5.68;;;3.53;;
12433;SDS011;6281;49.038;8.372;2023-06-14T11:13:37;3.90;;;3.50;;
12433;SDS011;6281;49.038;8.372;2023-06-14T11:16:11;8.05;;;3.92;;
12433;SDS011;6281;49.038;8.372;2023-06-14T11:18:38;4.13;;;3.40;;
12433;SDS011;6281;49.038;8.372;2023-06-14T11:21:05;4.18;;;3.78;;
12433;SDS011;6281;49.038;8.372;2023-06-14T11:23:33;4.70;;;3.80;;
12433;SDS011;6281;49.038;8.372;2023-06-14T11:26:00;4.25;;;3.83;;
12433;SDS011;6281;49.038;8.372;2023-06-14T11:28:35;5.55;;;3.88;;
12433;SDS011;6281;49.038;8.372;2023-06-14T11:31:03;6.28;;;4.15;;
12433;SDS011;6281;49.038;8.372;2023-06-14T11:33:32;5.35;;;4.13;;
12433;SDS011;6281;49.038;8.372;2023-06-14T11:36:01;5.13;;;4.43;;
12433;SDS011;6281;49.038;8.372;2023-06-14T11:38:29;4.95;;;3.90;;
12433;SDS011;6281;49.038;8.372;2023-06-14T11:40:58;4.07;;;3.67;;
12433;SDS011;6281;49.038;8.372;2023-06-14T11:43:26;5.53;;;4.10;;
12433;SDS011;6281;49.038;8.372;2023-06-14T11:45:54;4.95;;;3.60;;
12433;SDS011;6281;49.038;8.372;2023-06-14T11:48:21;4.90;;;3.47;;
12433;SDS011;6281;49.038;8.372;2023-06-14T11:50:50;6.07;;;3.90;;
12433;SDS011;6281;49.038;8.372;2023-06-14T11:53:17;6.68;;;4.07;;
12433;SDS011;6281;49.038;8.372;2023-06-14T11:55:44;4.32;;;3.30;;
12433;SDS011;6281;49.038;8.372;2023-06-14T11:58:12;3.83;;;3.45;;
12433;SDS011;6281;49.038;8.372;2023-06-14T12:00:40;6.15;;;3.25;;
12433;SDS011;6281;49.038;8.372;2023-06-14T12:03:07;4.15;;;3.10;;
12433;SDS011;6281;49.038;8.372;2023-06-14T12:05:34;3.05;;;2.78;;
12433;SDS011;6281;49.038;8.372;2023-06-14T12:08:03;3.13;;;2.88;;
12433;SDS011;6281;49.038;8.372;2023-06-14T12:10:39;3.22;;;2.92;;
12433;SDS011;6281;49.038;8.372;2023-06-14T12:13:08;5.68;;;3.30;;
12433;SDS011;6281;49.038;8.372;2023-06-14T12:15:36;3.45;;;2.85;;
12433;SDS011;6281;49.038;8.372;2023-06-14T12:18:05;4.25;;;2.88;;
12433;SDS011;6281;49.038;8.372;2023-06-14T12:20:33;3.90;;;2.95;;
12433;SDS011;6281;49.038;8.372;2023-06-14T12:23:03;3.30;;;2.78;;
12433;SDS011;6281;49.038;8.372;2023-06-14T12:25:31;4.82;;;2.47;;
12433;SDS011;6281;49.038;8.372;2023-06-14T12:27:59;3.05;;;2.75;;
12433;SDS011;6281;49.038;8.372;2023-06-14T12:30:30;5.57;;;2.72;;
12433;SDS011;6281;49.038;8.372;2023-06-14T12:32:57;5.80;;;2.97;;
12433;SDS011;6281;49.038;8.372;2023-06-14T12:35:25;3.72;;;2.60;;
12433;SDS011;6281;49.038;8.372;2023-06-14T12:37:52;3.33;;;2.75;;
12433;SDS011;6281;49.038;8.372;2023-06-14T12:40:20;3.83;;;3.17;;
12433;SDS011;6281;49.038;8.372;2023-06-14T12:42:47;4.88;;;2.67;;
12433;SDS011;6281;49.038;8.372;2023-06-14T12:45:14;3.38;;;2.92;;
12433;SDS011;6281;49.038;8.372;2023-06-14T12:47:41;4.75;;;3.10;;
12433;SDS011;6281;49.038;8.372;2023-06-14T12:50:08;7.93;;;3.00;;
12433;SDS011;6281;49.038;8.372;2023-06-14T12:52:35;4.43;;;2.78;;
12433;SDS011;6281;49.038;8.372;2023-06-14T12:55:02;3.05;;;2.58;;
12433;SDS011;6281;49.038;8.372;2023-06-14T12:57:31;3.53;;;2.40;;
12433;SDS011;6281;49.038;8.372;2023-06-14T13:00:01;5.53;;;2.75;;
12433;SDS011;6281;49.038;8.372;2023-06-14T13:02:30;2.65;;;2.45;;
12433;SDS011;6281;49.038;8.372;2023-06-14T13:04:57;5.28;;;3.28;;
12433;SDS011;6281;49.038;8.372;2023-06-14T13:07:25;3.40;;;3.10;;
12433;SDS011;6281;49.038;8.372;2023-06-14T13:09:52;3.25;;;2.95;;
12433;SDS011;6281;49.038;8.372;2023-06-14T13:12:19;5.30;;;3.10;;
12433;SDS011;6281;49.038;8.372;2023-06-14T13:14:47;4.32;;;3.13;;
12433;SDS011;6281;49.038;8.372;2023-06-14T13:17:15;3.78;;;2.88;;
12433;SDS011;6281;49.038;8.372;2023-06-14T13:19:42;3.58;;;3.03;;
12433;SDS011;6281;49.038;8.372;2023-06-14T13:22:09;4.20;;;2.78;;
12433;SDS011;6281;49.038;8.372;2023-06-14T13:24:36;4.30;;;3.00;;
12433;SDS011;6281;49.038;8.372;2023-06-14T13:27:03;3.85;;;2.90;;
12433;SDS011;6281;49.038;8.372;2023-06-14T13:33:06;4.53;;;3.03;;
12433;SDS011;6281;49.038;8.372;2023-06-14T13:38:15;3.45;;;2.90;;
12433;SDS011;6281;49.038;8.372;2023-06-14T13:39:38;3.20;;;2.90;;
12433;SDS011;6281;49.038;8.372;2023-06-14T13:42:56;2.83;;;2.63;;
12433;SDS011;6281;49.038;8.372;2023-06-14T13:45:52;3.05;;;2.80;;
12433;SDS011;6281;49.038;8.372;2023-06-14T13:48:21;3.88;;;2.85;;
12433;SDS011;6281;49.038;8.372;2023-06-14T13:50:48;2.80;;;2.60;;
12433;SDS011;6281;49.038;8.372;2023-06-14T13:53:15;4.63;;;3.22;;
12433;SDS011;6281;49.038;8.372;2023-06-14T13:55:42;4.68;;;3.22;;
12433;SDS011;6281;49.038;8.372;2023-06-14T13:58:09;3.33;;;3.00;;
12433;SDS011;6281;49.038;8.372;2023-06-14T14:00:36;3.58;;;3.28;;
12433;SDS011;6281;49.038;8.372;2023-06-14T14:03:05;5.47;;;2.90;;
12433;SDS011;6281;49.038;8.372;2023-06-14T14:05:33;3.25;;;2.95;;
12433;SDS011;6281;49.038;8.372;2023-06-14T14:08:00;3.35;;;2.78;;
12433;SDS011;6281;49.038;8.372;2023-06-14T14:10:27;4.70;;;3.17;;
12433;SDS011;6281;49.038;8.372;2023-06-14T14:12:53;3.08;;;2.78;;
12433;SDS011;6281;49.038;8.372;2023-06-14T14:15:21;2.88;;;2.60;;
12433;SDS011;6281;49.038;8.372;2023-06-14T14:17:48;3.65;;;2.75;;
12433;SDS011;6281;49.038;8.372;2023-06-14T14:20:16;4.25;;;3.10;;
12433;SDS011;6281;49.038;8.372;2023-06-14T14:22:44;3.00;;;2.70;;
12433;SDS011;6281;49.038;8.372;2023-06-14T14:25:11;3.45;;;2.88;;
12433;SDS011;6281;49.038;8.372;2023-06-14T14:27:38;3.75;;;2.88;;
12433;SDS011;6281;49.038;8.372;2023-06-14T14:30:06;3.90;;;3.03;;
12433;SDS011;6281;49.038;8.372;2023-06-14T14:32:33;3.78;;;3.00;;
12433;SDS011;6281;49.038;8.372;2023-06-14T14:35:00;2.95;;;2.65;;
12433;SDS011;6281;49.038;8.372;2023-06-14T14:37:26;3.28;;;2.97;;
12433;SDS011;6281;49.038;8.372;2023-06-14T14:39:55;3.25;;;2.95;;
12433;SDS011;6281;49.038;8.372;2023-06-14T14:42:21;2.92;;;2.72;;
12433;SDS011;6281;49.038;8.372;2023-06-14T14:44:48;2.92;;;2.63;;
12433;SDS011;6281;49.038;8.372;2023-06-14T14:47:15;2.85;;;2.40;;
12433;SDS011;6281;49.038;8.372;2023-06-14T14:49:42;3.30;;;2.75;;
12433;SDS011;6281;49.038;8.372;2023-06-14T14:52:09;3.22;;;2.92;;
12433;SDS011;6281;49.038;8.372;2023-06-14T14:54:36;3.28;;;2.85;;
12433;SDS011;6281;49.038;8.372;2023-06-14T14:57:04;4.47;;;3.00;;
12433;SDS011;6281;49.038;8.372;2023-06-14T14:59:32;4.03;;;2.58;;
12433;SDS011;6281;49.038;8.372;2023-06-14T15:01:59;3.33;;;2.90;;
12433;SDS011;6281;49.038;8.372;2023-06-14T15:04:25;3.60;;;2.88;;
12433;SDS011;6281;49.038;8.372;2023-06-14T15:06:52;3.05;;;2.72;;
12433;SDS011;6281;49.038;8.372;2023-06-14T15:09:19;3.85;;;2.80;;
12433;SDS011;6281;49.038;8.372;2023-06-14T15:11:46;3.10;;;2.83;;
12433;SDS011;6281;49.038;8.372;2023-06-14T15:14:14;3.55;;;2.80;;
12433;SDS011;6281;49.038;8.372;2023-06-14T15:16:41;3.35;;;2.47;;
12433;SDS011;6281;49.038;8.372;2023-06-14T15:19:07;4.00;;;2.88;;
12433;SDS011;6281;49.038;8.372;2023-06-14T15:21:34;3.50;;;2.65;;
12433;SDS011;6281;49.038;8.372;2023-06-14T15:24:01;3.10;;;2.70;;
12433;SDS011;6281;49.038;8.372;2023-06-14T15:26:28;5.20;;;2.85;;
12433;SDS011;6281;49.038;8.372;2023-06-14T15:29:08;5.65;;;2.83;;
12433;SDS011;6281;49.038;8.372;2023-06-14T15:31:43;3.75;;;2.38;;